createdAt,value
2023-04-27T00:01:45.392Z,6.54
2023-04-27T00:03:39.708Z,6.51
2023-04-27T00:05:30.884Z,6.54
2023-04-27T02:10:37.991Z,5.78
2023-04-27T02:12:41.686Z,5.74
2023-04-27T02:14:59.445Z,5.75
2023-04-27T02:16:36.094Z,5.74
2023-04-27T02:18:17.569Z,5.70
2023-04-27T02:19:44.970Z,5.68
2023-04-27T02:21:14.009Z,5.73
2023-04-27T02:22:37.944Z,5.68
2023-04-27T02:24:01.776Z,5.68
2023-04-27T02:25:26.792Z,5.70
2023-04-27T02:26:52.545Z,5.72
2023-04-27T02:28:14.282Z,5.73
2023-04-27T02:29:40.363Z,5.66
2023-04-27T02:31:04.893Z,5.74
2023-04-27T02:32:37.842Z,5.71
2023-04-27T02:34:23.785Z,5.73
2023-04-27T02:35:54.421Z,5.69
2023-04-27T02:37:19.598Z,5.65
2023-04-27T02:38:41.831Z,5.71
2023-04-27T02:40:12.034Z,5.63
2023-04-27T02:41:42.114Z,5.61
2023-04-27T02:43:18.730Z,5.64
2023-04-27T02:44:41.801Z,5.69
2023-04-27T02:46:05.022Z,5.65
2023-04-27T02:47:30.075Z,5.69
2023-04-27T02:48:52.786Z,5.65
2023-04-27T02:50:15.850Z,5.69
2023-04-27T02:51:41.408Z,5.64
2023-04-27T02:53:09.028Z,5.72
2023-04-27T02:54:31.554Z,5.69
2023-04-27T02:56:00.110Z,5.70
2023-04-27T02:57:26.593Z,5.72
2023-04-27T02:58:53.616Z,5.72
2023-04-27T03:00:24.503Z,5.71
2023-04-27T03:02:05.554Z,5.69
2023-04-27T03:03:39.523Z,5.70
2023-04-27T03:05:05.603Z,5.65
2023-04-27T03:06:31.047Z,5.60
2023-04-27T03:07:53.889Z,5.69
2023-04-27T03:09:22.428Z,5.61
2023-04-27T03:10:46.362Z,5.68
2023-04-27T03:12:26.049Z,5.65
2023-04-27T03:13:57.021Z,5.56
2023-04-27T03:16:06.380Z,5.67
2023-04-27T03:17:47.439Z,5.54
2023-04-27T03:19:27.164Z,5.58
2023-04-27T03:20:50.344Z,5.56
2023-04-27T03:22:21.552Z,5.62
2023-04-27T03:23:52.385Z,5.58
2023-04-27T03:25:29.999Z,5.61
2023-04-27T03:26:52.481Z,5.60
2023-04-27T03:28:38.287Z,5.61
2023-04-27T03:30:10.236Z,5.59
2023-04-27T03:31:36.569Z,5.53
2023-04-27T03:33:06.078Z,5.53
2023-04-27T03:34:40.307Z,5.61
2023-04-27T03:36:04.981Z,5.64
2023-04-27T03:37:29.359Z,5.60
2023-04-27T03:38:57.302Z,5.66
2023-04-27T03:40:21.477Z,5.66
2023-04-27T03:41:48.655Z,5.66
2023-04-27T03:43:12.168Z,5.73
2023-04-27T03:44:43.819Z,5.66
2023-04-27T03:46:09.073Z,5.73
2023-04-27T03:47:34.942Z,5.72
2023-04-27T03:48:56.852Z,5.74
2023-04-27T03:50:20.224Z,5.74
2023-04-27T03:51:46.028Z,5.84
2023-04-27T03:53:11.600Z,5.79
2023-04-27T03:54:33.716Z,5.89
2023-04-27T03:55:56.459Z,5.91
2023-04-27T03:57:21.216Z,5.87
2023-04-27T06:09:35.066Z,12.42
2023-04-27T06:22:59.237Z,13.43
2023-04-27T06:24:36.629Z,13.52
2023-04-27T06:26:11.691Z,13.67
2023-04-27T06:27:55.066Z,13.75
2023-04-27T06:29:24.368Z,13.84
2023-04-27T06:31:46.221Z,13.92
2023-04-27T06:33:22.428Z,14.15
2023-04-27T06:34:47.754Z,14.30
2023-04-27T06:36:12.005Z,14.37
2023-04-27T06:37:39.299Z,14.54
2023-04-27T06:39:04.331Z,14.57
2023-04-27T06:40:26.372Z,14.67
2023-04-27T06:41:48.787Z,14.77
2023-04-27T06:43:15.420Z,14.81
2023-04-27T06:44:47.375Z,14.96
2023-04-27T06:46:32.051Z,15.16
2023-04-27T06:50:30.345Z,15.60
2023-04-27T06:54:35.041Z,16.08
2023-04-27T06:56:13.480Z,16.29
2023-04-27T06:58:00.195Z,16.35
2023-04-27T07:05:56.580Z,17.44
2023-04-27T07:13:07.306Z,19.35
2023-04-27T07:14:31.927Z,19.57
2023-04-27T07:15:59.176Z,19.96
2023-04-27T07:17:22.934Z,20.46
2023-04-27T07:18:51.007Z,20.91
2023-04-27T07:20:23.826Z,21.08
2023-04-27T07:21:46.245Z,21.29
2023-04-27T07:23:08.740Z,21.42
2023-04-27T07:24:34.283Z,21.47
2023-04-27T07:26:02.818Z,21.53
2023-04-27T07:27:26.808Z,21.52
2023-04-27T07:28:55.327Z,21.55
2023-04-27T07:30:24.031Z,21.49
2023-04-27T07:32:20.296Z,21.54
2023-04-27T07:33:42.826Z,21.60
2023-04-27T07:40:25.016Z,21.89
2023-04-27T07:41:50.262Z,22.02
2023-04-27T07:43:12.816Z,22.14
2023-04-27T07:44:35.259Z,22.42
2023-04-27T07:45:58.704Z,22.73
2023-04-27T07:47:24.099Z,23.20
2023-04-27T07:48:46.389Z,23.42
2023-04-27T07:50:23.638Z,23.67
2023-04-27T07:52:21.727Z,23.96
2023-04-27T07:53:38.336Z,24.45
2023-04-27T07:55:07.556Z,24.73
2023-04-27T07:56:48.756Z,25.10
2023-04-27T07:58:44.942Z,25.55
2023-04-27T08:00:11.737Z,25.94
2023-04-27T08:01:48.340Z,26.26
2023-04-27T08:03:15.256Z,26.40
2023-04-27T08:04:53.435Z,26.58
2023-04-27T08:06:27.455Z,26.92
2023-04-27T08:07:54.375Z,27.31
2023-04-27T08:10:08.247Z,27.68
2023-04-27T08:11:39.881Z,28.06
2023-04-27T08:13:02.087Z,28.35
2023-04-27T08:14:24.281Z,28.59
2023-04-27T08:15:52.105Z,28.84
2023-04-27T08:17:23.750Z,28.98
2023-04-27T08:18:48.950Z,29.16
2023-04-27T08:20:21.288Z,29.25
2023-04-27T08:21:51.632Z,29.33
2023-04-27T08:25:39.286Z,29.29
2023-04-27T08:27:50.267Z,29.34
2023-04-27T08:29:28.468Z,29.42
2023-04-27T08:31:49.783Z,30.03
2023-04-27T08:35:17.853Z,32.29
2023-04-27T08:36:46.752Z,32.76
2023-04-27T08:38:12.680Z,32.78
2023-04-27T08:39:40.821Z,32.66
2023-04-27T08:41:20.786Z,32.75
2023-04-27T08:43:04.558Z,32.46
2023-04-27T08:44:46.034Z,32.27
2023-04-27T08:46:23.641Z,31.79
2023-04-27T08:53:28.220Z,32.57
2023-04-27T08:55:29.205Z,31.81
2023-04-27T08:57:17.822Z,30.93
2023-04-27T08:58:48.540Z,32.03
2023-04-27T09:01:12.580Z,33.65
2023-04-27T09:06:22.768Z,36.90
2023-04-27T09:09:00.586Z,37.29
2023-04-27T09:10:59.849Z,37.83
2023-04-27T09:13:01.751Z,38.05
2023-04-27T09:14:36.400Z,39.39
2023-04-27T09:16:39.061Z,39.41
2023-04-27T09:39:55.551Z,38.84
2023-04-27T09:41:24.602Z,38.69
2023-04-27T09:43:05.599Z,39.35
2023-04-27T09:44:33.868Z,39.04
2023-04-27T09:48:31.023Z,40.82
2023-04-27T09:50:01.187Z,42.02
2023-04-27T09:51:43.701Z,42.37
2023-04-27T09:53:28.352Z,43.10
2023-04-27T09:55:07.539Z,40.99
2023-04-27T09:57:39.284Z,39.01
2023-04-27T09:59:49.765Z,36.44
2023-04-27T10:01:37.401Z,34.83
2023-04-27T10:03:27.723Z,33.11
2023-04-27T10:05:49.812Z,31.41
2023-04-27T10:07:45.245Z,30.27
2023-04-27T10:09:24.465Z,29.48
2023-04-27T10:10:53.634Z,28.76
2023-04-27T10:15:36.643Z,27.19
2023-04-27T10:17:13.614Z,26.46
2023-04-27T10:18:36.256Z,26.07
2023-04-27T10:20:02.720Z,25.67
2023-04-27T10:21:28.582Z,25.30
2023-04-27T10:23:04.985Z,24.88
2023-04-27T10:27:28.136Z,24.11
2023-04-27T10:29:07.556Z,23.98
2023-04-27T10:30:58.598Z,23.72
2023-04-27T10:32:37.986Z,23.39
2023-04-27T10:34:31.187Z,23.25
2023-04-27T10:39:13.235Z,23.26
2023-04-27T10:48:48.124Z,23.72
2023-04-27T10:52:55.562Z,23.33
2023-04-27T10:54:21.668Z,23.19
2023-04-27T10:55:44.019Z,22.84
2023-04-27T10:57:07.021Z,22.52
2023-04-27T10:58:37.729Z,22.19
2023-04-27T11:00:06.039Z,21.92
2023-04-27T11:01:31.982Z,21.68
2023-04-27T11:02:56.358Z,21.34
2023-04-27T11:04:20.446Z,21.02
2023-04-27T11:05:45.308Z,20.72
2023-04-27T11:07:13.742Z,20.40
2023-04-27T11:08:51.694Z,20.09
2023-04-27T11:10:18.294Z,19.83
2023-04-27T11:11:49.947Z,19.72
2023-04-27T11:13:16.577Z,19.78
2023-04-27T11:14:55.090Z,19.81
2023-04-27T11:16:20.846Z,19.91
2023-04-27T11:17:48.891Z,19.98
2023-04-27T11:19:13.312Z,20.00
2023-04-27T11:20:37.212Z,19.92
2023-04-27T11:22:16.159Z,19.95
2023-04-27T11:23:41.089Z,19.83
2023-04-27T11:25:09.198Z,19.63
2023-04-27T11:26:34.745Z,19.56
2023-04-27T11:27:56.405Z,19.48
2023-04-27T11:29:53.864Z,19.24
2023-04-27T11:31:16.839Z,19.18
2023-04-27T11:32:41.903Z,19.00
2023-04-27T11:34:07.805Z,18.84
2023-04-27T11:35:40.201Z,18.62
2023-04-27T11:37:17.341Z,18.49
2023-04-27T11:38:51.957Z,18.20
2023-04-27T11:40:50.229Z,18.01
2023-04-27T11:42:23.454Z,17.98
2023-04-27T11:43:49.778Z,17.94
2023-04-27T11:45:36.118Z,17.88
2023-04-27T11:57:50.790Z,18.13
2023-04-27T11:59:25.738Z,18.01
2023-04-27T12:02:02.696Z,17.89
2023-04-27T12:03:55.727Z,17.91
2023-04-27T12:14:27.010Z,19.17
2023-04-27T12:21:30.368Z,19.14
2023-04-27T12:22:54.815Z,19.29
2023-04-27T12:24:17.545Z,19.34
2023-04-27T12:26:31.931Z,19.48
2023-04-27T12:28:13.394Z,19.61
2023-04-27T12:29:54.921Z,19.65
2023-04-27T12:31:25.360Z,19.73
2023-04-27T12:33:09.887Z,19.81
2023-04-27T12:36:19.812Z,19.92
2023-04-27T12:44:31.140Z,20.23
2023-04-27T12:46:12.072Z,20.26
2023-04-27T12:48:03.332Z,20.25
2023-04-27T12:49:31.672Z,20.35
2023-04-27T13:52:44.946Z,17.16
2023-04-27T13:54:14.408Z,17.22
2023-04-27T13:55:40.926Z,17.24
2023-04-27T13:57:03.649Z,17.27
2023-04-27T13:58:29.903Z,17.32
2023-04-27T13:59:59.897Z,17.40
2023-04-27T14:01:22.577Z,17.37
2023-04-27T14:02:46.029Z,17.35
2023-04-27T14:04:24.278Z,17.44
2023-04-27T14:05:58.727Z,17.36
2023-04-27T14:07:55.546Z,17.31
2023-04-27T14:12:31.127Z,16.81
2023-04-27T14:17:07.750Z,16.22
2023-04-27T14:19:05.559Z,16.02
2023-04-27T14:23:14.690Z,15.43
2023-04-27T14:27:03.516Z,15.04
2023-04-27T14:31:06.485Z,14.54
2023-04-27T14:32:39.792Z,14.44
2023-04-27T14:34:10.584Z,14.33
2023-04-27T14:35:49.882Z,14.25
2023-04-27T14:37:43.492Z,14.24
2023-04-27T14:46:44.688Z,14.06
2023-04-27T15:39:43.788Z,13.96
2023-04-27T16:07:41.596Z,13.55
2023-04-27T16:26:31.207Z,13.68
2023-04-27T16:28:10.562Z,13.64
2023-04-27T16:29:43.737Z,13.68
2023-04-27T16:31:31.814Z,13.68
2023-04-27T16:33:48.369Z,13.71
2023-04-27T16:36:10.812Z,13.68
2023-04-27T16:41:23.852Z,13.57
2023-04-27T16:42:51.087Z,13.56
2023-04-27T16:45:37.306Z,13.55
2023-04-27T16:47:01.511Z,13.53
2023-04-27T16:48:56.374Z,13.54
2023-04-27T16:50:40.398Z,13.62
2023-04-27T16:52:17.368Z,13.52
2023-04-27T16:53:51.201Z,13.50
2023-04-27T16:55:48.795Z,13.52
2023-04-27T16:57:29.983Z,13.60
2023-04-27T16:59:40.118Z,13.54
2023-04-27T17:01:03.499Z,13.48
2023-04-27T17:02:28.830Z,13.42
2023-04-27T17:03:51.800Z,13.41
2023-04-27T17:05:43.614Z,13.31
2023-04-27T17:08:20.420Z,13.36
2023-04-27T17:10:52.371Z,13.17
2023-04-27T17:15:29.011Z,13.03
2023-04-27T17:17:02.568Z,12.98
2023-04-27T17:18:33.650Z,12.90
2023-04-27T17:20:19.904Z,12.87
2023-04-27T17:21:51.694Z,12.82
2023-04-27T17:23:42.185Z,12.80
2023-04-27T17:25:11.875Z,12.73
2023-04-27T17:26:52.555Z,12.69
2023-04-27T17:28:19.410Z,12.76
2023-04-27T17:29:53.834Z,12.71
2023-04-27T17:38:04.524Z,12.41
2023-04-27T17:39:45.978Z,12.42
2023-04-27T17:42:12.985Z,12.36
2023-04-27T17:47:09.957Z,12.24
2023-04-27T17:49:10.074Z,12.21
2023-04-27T17:56:00.710Z,11.91
2023-04-27T18:01:21.731Z,11.77
2023-04-27T18:03:40.327Z,11.60
2023-04-27T18:08:23.837Z,11.52
2023-04-27T18:10:25.351Z,11.39
2023-04-27T19:21:49.685Z,10.62
2023-04-27T19:35:27.105Z,10.46
2023-04-27T19:36:57.008Z,10.54
2023-04-27T19:38:29.713Z,10.48
2023-04-27T19:39:52.185Z,10.54
2023-04-27T19:41:38.157Z,10.52
2023-04-27T19:43:15.114Z,10.51
2023-04-27T19:45:04.093Z,10.51
2023-04-27T19:47:07.004Z,10.56
2023-04-27T19:48:44.967Z,10.52
2023-04-27T19:50:23.352Z,10.50
2023-04-27T19:54:41.670Z,10.51
2023-04-27T20:12:04.658Z,10.15
2023-04-27T20:18:28.968Z,10.08
2023-04-27T20:20:09.782Z,10.06
2023-04-27T20:21:32.914Z,10.02
2023-04-27T20:23:00.585Z,9.99
2023-04-27T20:24:26.094Z,10.00
2023-04-27T20:25:52.890Z,9.97
2023-04-27T20:27:24.824Z,9.93
2023-04-27T20:28:58.987Z,9.98
2023-04-27T22:57:41.795Z,8.73
2023-04-27T23:02:18.871Z,8.81
2023-04-27T23:03:47.289Z,8.82
2023-04-27T23:05:13.865Z,8.78
2023-04-27T23:07:08.776Z,8.86
2023-04-27T23:15:13.572Z,8.87
2023-04-27T23:16:38.760Z,8.86
2023-04-27T23:20:28.863Z,8.91
2023-04-27T23:21:51.010Z,8.85
2023-04-27T23:23:40.046Z,8.80
2023-04-27T23:25:08.813Z,8.86
2023-04-27T23:26:31.186Z,8.89
2023-04-27T23:27:57.201Z,8.92
2023-04-27T23:29:18.630Z,8.85
2023-04-27T23:30:42.577Z,8.81
2023-04-27T23:32:27.197Z,8.88
2023-04-27T23:33:50.951Z,8.93
2023-04-27T23:35:16.768Z,8.94
2023-04-27T23:37:35.012Z,8.94
2023-04-27T23:40:02.258Z,8.94
2023-04-27T23:47:43.128Z,8.87
2023-04-27T23:49:25.333Z,8.90
2023-04-27T23:51:39.028Z,8.91
2023-04-27T23:53:00.628Z,8.88
2023-04-27T23:54:23.687Z,8.89
2023-04-27T23:56:01.395Z,8.79
2023-04-27T23:57:29.553Z,8.79
